createdAt,value
2018-10-17T00:01:06.403Z,12.03
2018-10-17T00:03:35.588Z,12.73
2018-10-17T00:06:04.838Z,11.97
2018-10-17T00:08:34.000Z,12.87
2018-10-17T00:11:04.420Z,12.17
2018-10-17T00:13:34.454Z,12.13
2018-10-17T00:16:03.901Z,12.47
2018-10-17T00:18:32.831Z,12.13
2018-10-17T00:21:01.448Z,12.23
2018-10-17T00:23:30.378Z,12.33
2018-10-17T00:25:59.390Z,12.60
2018-10-17T00:28:28.387Z,12.50
2018-10-17T00:30:57.427Z,13.10
2018-10-17T00:33:26.487Z,12.50
2018-10-17T00:35:55.494Z,12.97
2018-10-17T00:38:24.237Z,11.93
2018-10-17T00:40:53.007Z,12.13
2018-10-17T00:43:22.494Z,12.67
2018-10-17T00:45:51.000Z,12.90
2018-10-17T00:48:19.548Z,13.10
2018-10-17T00:50:48.147Z,11.90
2018-10-17T00:53:16.688Z,13.50
2018-10-17T00:55:45.243Z,13.50
2018-10-17T00:58:13.832Z,13.33
2018-10-17T01:00:42.358Z,14.70
2018-10-17T01:03:11.058Z,13.30
2018-10-17T01:05:39.888Z,14.07
2018-10-17T01:08:08.431Z,14.30
2018-10-17T01:10:36.879Z,13.20
2018-10-17T01:13:05.464Z,12.47
2018-10-17T01:15:33.807Z,14.13
2018-10-17T01:18:02.259Z,13.03
2018-10-17T01:20:30.694Z,13.37
2018-10-17T01:22:59.127Z,11.73
2018-10-17T01:25:27.642Z,12.53
2018-10-17T01:27:56.180Z,13.27
2018-10-17T01:30:24.623Z,13.53
2018-10-17T01:32:53.065Z,13.93
2018-10-17T01:35:21.738Z,15.67
2018-10-17T01:37:50.334Z,13.30
2018-10-17T01:40:21.084Z,13.17
2018-10-17T01:42:49.672Z,14.00
2018-10-17T01:45:18.435Z,13.20
2018-10-17T01:47:47.014Z,14.17
2018-10-17T01:50:15.608Z,12.10
2018-10-17T01:52:46.092Z,14.10
2018-10-17T01:55:14.898Z,12.20
2018-10-17T01:57:43.985Z,12.67
2018-10-17T02:00:12.914Z,13.57
2018-10-17T02:02:41.939Z,12.73
2018-10-17T02:05:10.626Z,12.10
2018-10-17T02:07:40.003Z,14.13
2018-10-17T02:10:08.706Z,14.13
2018-10-17T02:12:37.294Z,12.83
2018-10-17T02:15:06.293Z,14.90
2018-10-17T02:17:36.338Z,12.77
2018-10-17T02:20:04.874Z,13.07
2018-10-17T02:22:33.446Z,12.57
2018-10-17T02:25:01.952Z,12.47
2018-10-17T02:27:30.595Z,13.10
2018-10-17T02:29:59.260Z,13.20
2018-10-17T02:32:27.993Z,13.70
2018-10-17T02:35:01.761Z,12.67
2018-10-17T02:37:30.452Z,12.33
2018-10-17T02:39:59.136Z,13.50
2018-10-17T02:42:29.810Z,14.00
2018-10-17T02:44:58.687Z,14.03
2018-10-17T02:47:27.270Z,13.63
2018-10-17T02:49:56.269Z,13.57
2018-10-17T02:52:25.209Z,13.03
2018-10-17T02:54:59.732Z,13.60
2018-10-17T02:57:28.231Z,13.30
2018-10-17T02:59:56.753Z,12.57
2018-10-17T03:02:25.221Z,12.13
2018-10-17T03:04:53.848Z,13.03
2018-10-17T03:07:22.401Z,13.20
2018-10-17T03:09:50.957Z,13.07
2018-10-17T03:12:19.524Z,13.07
2018-10-17T03:14:48.310Z,12.20
2018-10-17T03:17:16.817Z,13.03
2018-10-17T03:19:45.458Z,12.20
2018-10-17T03:22:13.936Z,13.13
2018-10-17T03:24:42.558Z,11.83
2018-10-17T03:27:11.124Z,12.50
2018-10-17T03:29:39.597Z,12.00
2018-10-17T03:32:08.158Z,11.90
2018-10-17T03:34:36.634Z,12.40
2018-10-17T03:37:05.331Z,12.17
2018-10-17T03:39:33.797Z,13.23
2018-10-17T03:42:02.390Z,12.07
2018-10-17T03:44:30.824Z,13.13
2018-10-17T03:46:59.329Z,12.60
2018-10-17T03:49:28.012Z,13.00
2018-10-17T03:51:56.434Z,12.57
2018-10-17T03:54:24.950Z,13.43
2018-10-17T03:56:53.427Z,14.07
2018-10-17T03:59:22.055Z,12.37
2018-10-17T04:01:50.319Z,12.93
2018-10-17T04:04:18.788Z,12.47
2018-10-17T04:06:47.295Z,12.27
2018-10-17T04:09:15.764Z,11.90
2018-10-17T04:11:44.293Z,12.30
2018-10-17T04:14:12.843Z,11.93
2018-10-17T04:16:41.479Z,11.30
2018-10-17T04:19:10.070Z,11.93
2018-10-17T04:21:39.128Z,12.47
2018-10-17T04:24:10.071Z,11.87
2018-10-17T04:26:38.733Z,11.80
2018-10-17T04:29:07.743Z,11.63
2018-10-17T04:31:38.707Z,13.07
2018-10-17T04:34:07.617Z,11.97
2018-10-17T04:36:41.148Z,10.80
2018-10-17T04:39:11.251Z,13.63
2018-10-17T04:41:40.279Z,11.43
2018-10-17T04:44:10.445Z,12.47
2018-10-17T04:46:39.655Z,11.10
2018-10-17T04:49:09.763Z,10.80
2018-10-17T04:51:39.143Z,11.47
2018-10-17T04:54:08.194Z,11.23
2018-10-17T04:56:36.766Z,10.53
2018-10-17T04:59:05.754Z,11.33
2018-10-17T05:01:34.496Z,12.07
2018-10-17T05:04:04.162Z,11.77
2018-10-17T05:06:38.795Z,11.80
2018-10-17T05:09:13.391Z,10.57
2018-10-17T05:11:42.262Z,12.10
2018-10-17T05:14:11.007Z,12.27
2018-10-17T05:16:39.855Z,11.40
2018-10-17T05:19:08.899Z,11.23
2018-10-17T05:24:55.398Z,14.20
2018-10-17T05:27:24.402Z,12.57
2018-10-17T05:29:53.118Z,10.63
2018-10-17T05:32:31.571Z,11.30
2018-10-17T06:01:20.515Z,11.13
2018-10-17T06:03:56.601Z,11.13
2018-10-17T06:32:35.224Z,11.10
2018-10-17T06:35:03.765Z,11.90
2018-10-17T06:37:32.280Z,11.60
2018-10-17T06:40:22.704Z,10.80
2018-10-17T06:43:00.909Z,10.23
2018-10-17T06:45:30.101Z,11.20
2018-10-17T06:47:58.760Z,11.87
2018-10-17T06:50:27.511Z,12.20
2018-10-17T06:55:35.635Z,12.20
2018-10-17T06:58:05.471Z,13.00
2018-10-17T07:00:34.537Z,12.20
2018-10-17T07:03:03.716Z,12.70
2018-10-17T07:05:33.733Z,13.20
2018-10-17T07:08:03.821Z,11.03
2018-10-17T07:10:33.908Z,12.77
2018-10-17T07:13:03.762Z,10.77
2018-10-17T07:15:32.924Z,11.67
2018-10-17T07:18:05.894Z,12.03
2018-10-17T07:20:35.101Z,12.33
2018-10-17T07:23:05.111Z,12.43
2018-10-17T07:25:36.563Z,12.50
2018-10-17T07:48:35.825Z,10.40
2018-10-17T07:51:06.567Z,11.87
2018-10-17T07:53:35.645Z,12.63
2018-10-17T07:59:04.674Z,12.43
2018-10-17T08:01:36.843Z,11.57
2018-10-17T08:04:22.078Z,13.07
2018-10-17T08:06:53.696Z,13.37
2018-10-17T08:09:33.723Z,12.57
2018-10-17T08:12:06.153Z,13.20
2018-10-17T08:14:51.873Z,12.20
2018-10-17T08:17:34.601Z,13.50
2018-10-17T08:23:08.779Z,11.90
2018-10-17T08:25:38.843Z,11.50
2018-10-17T08:31:08.157Z,11.77
2018-10-17T08:33:36.756Z,11.33
2018-10-17T08:36:05.758Z,12.73
2018-10-17T09:03:09.429Z,10.67
2018-10-17T09:05:39.294Z,9.87
2018-10-17T09:08:11.195Z,9.13
2018-10-17T09:10:39.742Z,9.97
2018-10-17T09:13:09.412Z,11.37
2018-10-17T09:15:39.329Z,10.07
2018-10-17T09:18:09.321Z,11.90
2018-10-17T09:20:39.401Z,11.70
2018-10-17T09:23:08.982Z,11.60
2018-10-17T09:25:38.984Z,10.90
2018-10-17T09:28:09.152Z,11.70
2018-10-17T09:30:37.797Z,11.77
2018-10-17T09:33:10.357Z,11.47
2018-10-17T09:35:39.099Z,10.77
2018-10-17T09:38:09.021Z,10.83
2018-10-17T09:40:38.776Z,10.43
2018-10-17T09:43:09.364Z,11.30
2018-10-17T09:45:39.180Z,10.33
2018-10-17T09:48:12.402Z,10.77
2018-10-17T09:50:42.204Z,11.57
2018-10-17T09:53:11.243Z,10.83
2018-10-17T09:55:43.750Z,11.57
2018-10-17T09:58:12.358Z,11.57
2018-10-17T10:03:32.342Z,10.83
2018-10-17T10:06:32.526Z,10.23
2018-10-17T10:09:10.069Z,10.93
2018-10-17T10:11:39.368Z,11.27
2018-10-17T10:14:09.330Z,11.13
2018-10-17T10:16:50.989Z,11.70
2018-10-17T10:19:23.762Z,10.73
2018-10-17T10:22:01.727Z,9.90
2018-10-17T10:24:30.413Z,11.90
2018-10-17T10:27:04.405Z,10.67
2018-10-17T10:29:34.681Z,10.87
2018-10-17T10:32:08.966Z,10.67
2018-10-17T10:34:37.842Z,11.57
2018-10-17T10:37:09.484Z,10.20
2018-10-17T10:39:39.453Z,11.53
2018-10-17T10:42:08.515Z,13.40
2018-10-17T10:44:37.920Z,12.03
2018-10-17T10:47:09.043Z,12.83
2018-10-17T10:49:37.574Z,12.87
2018-10-17T10:52:06.972Z,12.53
2018-10-17T10:54:39.519Z,10.93
2018-10-17T10:57:08.561Z,14.07
2018-10-17T10:59:40.614Z,12.67
2018-10-17T11:02:09.569Z,15.00
2018-10-17T11:04:38.646Z,12.57
2018-10-17T11:07:09.575Z,12.37
2018-10-17T11:09:38.585Z,8.43
2018-10-17T11:12:09.827Z,12.77
2018-10-17T11:14:38.808Z,11.63
2018-10-17T11:17:09.725Z,11.50
2018-10-17T11:19:38.639Z,12.70
2018-10-17T11:22:10.654Z,13.03
2018-10-17T11:24:39.694Z,12.10
2018-10-17T11:27:08.723Z,12.93
2018-10-17T11:29:37.724Z,11.90
2018-10-17T11:32:10.671Z,12.10
2018-10-17T11:34:39.712Z,12.93
2018-10-17T11:37:09.738Z,11.60
2018-10-17T11:39:38.735Z,12.27
2018-10-17T11:42:07.767Z,10.80
2018-10-17T11:44:36.782Z,11.70
2018-10-17T11:47:06.303Z,12.27
2018-10-17T11:49:38.933Z,11.03
2018-10-17T11:52:16.813Z,12.27
2018-10-17T11:54:49.303Z,11.57
2018-10-17T11:57:18.941Z,11.70
2018-10-17T11:59:49.937Z,10.40
2018-10-17T12:02:19.868Z,11.80
2018-10-17T12:04:56.148Z,12.90
2018-10-17T12:07:24.874Z,12.30
2018-10-17T12:10:05.400Z,12.70
2018-10-17T12:12:33.974Z,12.37
2018-10-17T12:15:02.605Z,11.53
2018-10-17T12:17:31.136Z,9.87
2018-10-17T12:20:08.719Z,11.10
2018-10-17T12:22:38.724Z,10.93
2018-10-17T12:25:08.649Z,12.73
2018-10-17T12:27:38.004Z,10.57
2018-10-17T12:30:08.088Z,11.97
2018-10-17T12:32:45.812Z,13.57
2018-10-17T12:35:19.181Z,11.83
2018-10-17T12:37:55.703Z,11.93
2018-10-17T12:40:28.545Z,15.30
2018-10-17T12:42:58.551Z,12.67
2018-10-17T12:45:28.998Z,14.40
2018-10-17T12:47:58.856Z,12.53
2018-10-17T12:50:29.405Z,11.70
2018-10-17T12:52:59.054Z,13.57
2018-10-17T12:55:30.541Z,15.07
2018-10-17T12:58:08.105Z,16.33
2018-10-17T13:03:22.594Z,16.43
2018-10-17T13:05:51.146Z,18.30
2018-10-17T13:08:20.471Z,16.70
2018-10-17T13:10:48.989Z,17.60
2018-10-17T13:13:21.144Z,17.70
2018-10-17T13:15:49.685Z,17.07
2018-10-17T13:18:18.234Z,15.17
2018-10-17T13:20:47.790Z,15.50
2018-10-17T13:23:17.570Z,16.13
2018-10-17T13:25:46.161Z,17.73
2018-10-17T13:28:21.269Z,18.13
2018-10-17T13:30:52.421Z,15.13
2018-10-17T13:33:21.782Z,16.53
2018-10-17T13:35:50.425Z,12.67
2018-10-17T13:38:20.045Z,16.23
2018-10-17T13:40:51.570Z,14.57
2018-10-17T13:43:20.407Z,14.27
2018-10-17T13:45:51.397Z,14.77
2018-10-17T13:48:20.517Z,15.67
2018-10-17T13:50:49.385Z,15.37
2018-10-17T13:53:18.895Z,20.20
2018-10-17T13:55:47.485Z,19.50
2018-10-17T13:58:16.520Z,16.80
2018-10-17T14:00:45.476Z,20.20
2018-10-17T14:03:14.198Z,19.90
2018-10-17T14:05:43.434Z,17.93
2018-10-17T14:08:11.918Z,20.03
2018-10-17T14:10:40.603Z,17.97
2018-10-17T14:13:09.165Z,21.43
2018-10-17T14:15:37.735Z,19.27
2018-10-17T14:18:06.667Z,19.63
2018-10-17T14:20:35.574Z,20.07
2018-10-17T14:23:04.545Z,22.03
2018-10-17T14:25:33.562Z,21.83
2018-10-17T14:28:02.529Z,21.87
2018-10-17T14:30:31.593Z,18.20
2018-10-17T14:33:00.608Z,23.47
2018-10-17T14:35:29.611Z,21.90
2018-10-17T14:37:58.661Z,19.80
2018-10-17T14:40:27.633Z,24.40
2018-10-17T14:42:58.138Z,21.07
2018-10-17T14:45:26.783Z,25.07
2018-10-17T14:47:55.254Z,26.13
2018-10-17T14:50:37.691Z,21.47
2018-10-17T14:53:06.943Z,25.33
2018-10-17T14:55:45.632Z,23.73
2018-10-17T14:58:20.250Z,22.03
2018-10-17T15:01:07.978Z,24.70
2018-10-17T15:03:47.356Z,20.63
2018-10-17T15:06:18.113Z,22.43
2018-10-17T15:08:50.541Z,25.90
2018-10-17T15:11:19.577Z,21.33
2018-10-17T15:13:48.296Z,21.67
2018-10-17T15:16:17.850Z,20.83
2018-10-17T15:18:51.991Z,24.27
2018-10-17T15:21:22.077Z,24.10
2018-10-17T15:23:57.133Z,22.33
2018-10-17T15:26:28.602Z,23.93
2018-10-17T15:28:57.201Z,25.37
2018-10-17T15:31:25.740Z,23.83
2018-10-17T15:33:55.801Z,25.00
2018-10-17T15:36:28.590Z,19.30
2018-10-17T15:38:59.350Z,22.30
2018-10-17T15:41:27.997Z,22.23
2018-10-17T15:43:57.080Z,22.93
2018-10-17T15:46:27.012Z,26.97
2018-10-17T15:48:57.417Z,24.93
2018-10-17T15:51:26.094Z,21.03
2018-10-17T15:53:55.134Z,23.47
2018-10-17T15:56:24.017Z,23.17
2018-10-17T15:58:53.027Z,24.10
2018-10-17T16:01:22.825Z,24.20
2018-10-17T16:03:51.841Z,78.87
2018-10-17T16:06:22.392Z,97.77
2018-10-17T16:08:51.194Z,77.57
2018-10-17T16:11:26.813Z,50.97
2018-10-17T16:13:56.756Z,39.27
2018-10-17T16:16:25.282Z,35.95
2018-10-17T16:18:53.918Z,31.07
2018-10-17T16:21:22.321Z,25.50
2018-10-17T16:23:51.029Z,29.70
2018-10-17T16:26:20.193Z,25.73
2018-10-17T16:28:49.204Z,25.53
2018-10-17T16:31:20.233Z,24.40
2018-10-17T16:33:49.201Z,24.70
2018-10-17T16:36:18.259Z,21.67
2018-10-17T16:38:47.234Z,25.63
2018-10-17T16:41:16.255Z,20.33
2018-10-17T16:43:45.250Z,20.20
2018-10-17T16:46:14.253Z,21.53
2018-10-17T16:48:43.269Z,17.97
2018-10-17T16:51:12.278Z,17.93
2018-10-17T16:53:41.290Z,18.47
2018-10-17T16:56:10.296Z,22.62
2018-10-17T16:58:39.411Z,17.07
2018-10-17T17:01:08.322Z,18.37
2018-10-17T17:03:37.335Z,17.20
2018-10-17T17:06:19.845Z,18.60
2018-10-17T17:08:48.384Z,15.93
2018-10-17T17:11:17.371Z,16.73
2018-10-17T17:13:46.322Z,17.17
2018-10-17T17:16:14.881Z,16.13
2018-10-17T17:18:43.563Z,19.03
2018-10-17T17:21:18.743Z,16.13
2018-10-17T17:23:47.464Z,14.23
2018-10-17T17:26:22.030Z,14.87
2018-10-17T17:28:50.915Z,14.50
2018-10-17T17:31:19.918Z,12.57
2018-10-17T17:33:48.535Z,12.43
2018-10-17T17:36:18.504Z,11.33
2018-10-17T17:38:47.586Z,11.20
2018-10-17T17:41:21.185Z,9.47
2018-10-17T17:43:50.015Z,9.27
2018-10-17T17:46:20.040Z,8.33
2018-10-17T17:48:50.036Z,8.50
2018-10-17T17:51:19.586Z,7.20
2018-10-17T17:53:49.604Z,7.23
2018-10-17T17:56:18.557Z,6.57
2018-10-17T17:58:49.105Z,6.17
2018-10-17T18:01:19.130Z,6.80
2018-10-17T18:03:48.733Z,6.57
2018-10-17T18:06:18.251Z,6.00
2018-10-17T18:08:46.741Z,5.70
2018-10-17T18:11:26.680Z,6.23
2018-10-17T18:13:57.087Z,6.30
2018-10-17T18:16:25.858Z,5.37
2018-10-17T18:18:55.689Z,5.20
2018-10-17T18:21:30.715Z,5.83
2018-10-17T18:24:02.879Z,6.27
2018-10-17T18:26:32.130Z,5.40
2018-10-17T18:29:12.800Z,5.60
2018-10-17T18:45:42.748Z,6.10
2018-10-17T18:48:12.292Z,5.80
2018-10-17T18:50:41.681Z,6.33
2018-10-17T18:53:10.516Z,6.30
2018-10-17T18:55:39.047Z,6.70
2018-10-17T18:58:07.524Z,6.47
2018-10-17T19:00:36.318Z,6.77
2018-10-17T19:03:04.884Z,6.63
2018-10-17T19:05:33.850Z,6.70
2018-10-17T19:08:09.542Z,6.73
2018-10-17T19:10:38.026Z,7.80
2018-10-17T19:13:06.929Z,6.57
2018-10-17T19:15:35.906Z,6.77
2018-10-17T19:18:04.914Z,6.80
2018-10-17T19:23:10.022Z,7.37
2018-10-17T19:25:44.938Z,7.17
2018-10-17T19:28:14.007Z,6.53
2018-10-17T19:30:42.977Z,7.33
2018-10-17T19:33:12.165Z,6.30
2018-10-17T19:35:51.118Z,7.17
2018-10-17T19:38:25.681Z,7.47
2018-10-17T19:40:54.585Z,7.33
2018-10-17T19:43:23.084Z,7.00
2018-10-17T19:45:51.562Z,7.40
2018-10-17T19:48:30.184Z,7.00
2018-10-17T19:53:55.608Z,6.27
2018-10-17T19:56:24.124Z,6.80
2018-10-17T20:04:48.712Z,9.13
2018-10-17T20:07:17.277Z,8.33
2018-10-17T20:09:45.912Z,9.23
2018-10-17T20:12:14.452Z,9.40
2018-10-17T20:14:42.975Z,9.53
2018-10-17T20:17:11.543Z,8.50
2018-10-17T20:19:43.420Z,9.53
2018-10-17T20:22:25.985Z,9.20
2018-10-17T20:24:54.432Z,9.10
2018-10-17T20:27:23.071Z,8.37
2018-10-17T20:29:53.665Z,9.17
2018-10-17T20:32:22.265Z,9.37
2018-10-17T20:34:56.430Z,8.37
2018-10-17T20:37:24.882Z,9.23
2018-10-17T20:39:53.336Z,9.80
2018-10-17T20:42:21.850Z,9.37
2018-10-17T20:44:56.279Z,8.63
2018-10-17T20:47:30.568Z,8.90
2018-10-17T20:49:59.018Z,8.17
2018-10-17T20:52:27.509Z,8.43
2018-10-17T20:54:56.220Z,9.37
2018-10-17T20:57:25.432Z,9.33
2018-10-17T20:59:53.958Z,9.17
2018-10-17T21:02:22.730Z,10.30
2018-10-17T21:04:52.267Z,9.23
2018-10-17T21:07:26.382Z,9.73
2018-10-17T21:09:54.850Z,8.90
2018-10-17T21:12:26.502Z,8.57
2018-10-17T21:14:55.409Z,8.83
2018-10-17T21:17:24.045Z,9.30
2018-10-17T21:19:59.339Z,9.10
2018-10-17T21:22:28.030Z,9.37
2018-10-17T21:24:56.687Z,9.10
2018-10-17T21:27:25.213Z,9.97
2018-10-17T21:29:53.781Z,10.30
2018-10-17T21:32:22.335Z,9.63
2018-10-17T21:34:56.044Z,9.20
2018-10-17T21:37:24.580Z,9.47
2018-10-17T21:39:56.858Z,9.57
2018-10-17T21:42:25.906Z,9.10
2018-10-17T21:44:55.570Z,9.63
2018-10-17T21:47:25.952Z,9.70
2018-10-17T21:49:55.588Z,11.10
2018-10-17T21:52:24.270Z,9.83
2018-10-17T21:54:52.747Z,9.77
2018-10-17T21:57:21.303Z,9.33
2018-10-17T21:59:53.253Z,9.33
2018-10-17T22:02:24.947Z,9.30
2018-10-17T22:04:53.645Z,9.27
2018-10-17T22:07:22.218Z,10.87
2018-10-17T22:09:54.629Z,10.20
2018-10-17T22:12:23.974Z,9.53
2018-10-17T22:14:52.610Z,9.47
2018-10-17T22:17:41.901Z,9.47
2018-10-17T22:20:10.553Z,9.57
2018-10-17T22:23:17.161Z,8.90
2018-10-17T22:25:58.349Z,9.47
2018-10-17T22:28:27.028Z,9.40
2018-10-17T22:30:55.546Z,8.57
2018-10-17T22:33:24.215Z,8.97
2018-10-17T22:35:53.173Z,9.80
2018-10-17T22:38:21.741Z,9.40
2018-10-17T22:40:55.353Z,9.10
2018-10-17T22:43:24.004Z,9.47
2018-10-17T22:45:52.637Z,9.37
2018-10-17T22:48:34.152Z,8.80
2018-10-17T22:51:02.736Z,9.73
2018-10-17T22:53:41.238Z,9.23
2018-10-17T22:56:10.028Z,8.37
2018-10-17T22:58:42.441Z,8.87
2018-10-17T23:01:39.345Z,8.50
2018-10-17T23:04:26.185Z,9.47
2018-10-17T23:06:55.260Z,9.60
2018-10-17T23:09:24.095Z,8.67
2018-10-17T23:11:52.631Z,9.00
2018-10-17T23:14:27.772Z,9.33
2018-10-17T23:16:56.286Z,9.03
2018-10-17T23:19:25.433Z,8.10
2018-10-17T23:21:54.023Z,8.67
2018-10-17T23:24:22.592Z,9.17
2018-10-17T23:26:51.153Z,8.50
2018-10-17T23:29:20.512Z,8.70
2018-10-17T23:31:49.008Z,9.30
2018-10-17T23:34:33.988Z,9.07
2018-10-17T23:37:02.600Z,8.07
2018-10-17T23:39:41.298Z,8.70
2018-10-17T23:42:09.980Z,9.07
2018-10-17T23:44:39.163Z,8.73
2018-10-17T23:47:08.335Z,8.47
2018-10-17T23:49:38.100Z,8.43
2018-10-17T23:52:06.688Z,8.57
2018-10-17T23:54:35.246Z,9.83
2018-10-17T23:57:03.804Z,9.20
2018-10-17T23:59:32.372Z,9.03
